Time;durP1;ratioP1;P1;durP2;ratioP2;P2;SDS_P1;SDS_P2;PMS_P1;PMS_P2;Temp;Humidity;BMP_temperature;BMP_pressure;BME280_temperature;BME280_humidity;BME280_pressure;Samples;Min_cycle;Max_cycle;Signal;HPM_P1;HPM_P2
2024/01/23 00:01:06;;;;;;;;;;;6.20;99.90;;;;;;5068670;28;20018;-75
2024/01/23 00:03:33;;;;;;;;;;;6.10;99.90;;;;;;5085193;28;19936;-74
2024/01/23 00:05:58;;;;;;;;;;;6.30;99.80;;;;;;5070729;28;19927;-75
2024/01/23 00:08:24;;;;;;;;;;;6.60;99.70;;;;;;5085860;28;19932;-75
2024/01/23 00:10:50;;;;;;;;;;;6.00;99.40;;;;;;5085224;28;19932;-75
2024/01/23 00:13:15;;;;;;;;;;;6.30;99.60;;;;;;5067318;27;20310;-75
2024/01/23 00:15:41;;;;;;;;;;;6.00;99.50;;;;;;5084692;28;20022;-74
2024/01/23 00:18:07;;;;;;;;;;;6.40;99.70;;;;;;5067702;28;19931;-75
2024/01/23 00:20:33;;;;;;;;;;;6.10;99.70;;;;;;5056696;27;19931;-75
2024/01/23 00:22:59;;;;;;;;;;;6.60;99.70;;;;;;5101393;28;19928;-75
2024/01/23 00:25:25;;;;;;;;;;;6.10;99.80;;;;;;5067107;27;20397;-75
2024/01/23 00:27:51;;;;;;;;;;;5.90;99.70;;;;;;5086911;27;19927;-74
2024/01/23 00:30:17;;;;;;;;;;;5.90;99.90;;;;;;5102337;27;20378;-75
2024/01/23 00:32:43;;;;;;;;;;;5.90;99.90;;;;;;5085761;28;19939;-74
2024/01/23 00:35:08;;;;;;;;;;;6.50;99.90;;;;;;5085742;28;20870;-74
2024/01/23 00:37:34;;;;;;;;;;;6.20;99.90;;;;;;5086108;27;20481;-74
2024/01/23 00:40:01;;;;;;;;;;;5.70;99.90;;;;;;5084805;28;20010;-74
2024/01/23 00:42:27;;;;;;;;;;;6.20;99.90;;;;;;5067244;28;19936;-74
2024/01/23 00:44:55;;;;;;;;;;;5.90;99.90;;;;;;5084443;28;19928;-75
2024/01/23 00:47:21;;;;;;;;;;;6.00;99.90;;;;;;5069654;28;20298;-75
2024/01/23 00:49:47;;;;;;;;;;;6.30;99.90;;;;;;5052343;28;19924;-75
2024/01/23 00:52:12;;;;;;;;;;;6.10;99.90;;;;;;5067425;28;20610;-75
2024/01/23 00:54:40;;;;;;;;;;;7.50;99.90;;;;;;5083341;27;19928;-75
2024/01/23 00:57:05;;;;;;;;;;;5.90;99.90;;;;;;5085271;28;19927;-74
2024/01/23 00:59:32;;;;;;;;;;;5.70;99.90;;;;;;5069477;28;20014;-74
2024/01/23 01:01:57;;;;;;;;;;;6.20;99.90;;;;;;5083601;28;20986;-74
2024/01/23 01:04:23;;;;;;;;;;;6.10;99.90;;;;;;5084097;28;19932;-75
2024/01/23 01:06:48;;;;;;;;;;;6.00;99.90;;;;;;5068082;28;19969;-75
2024/01/23 01:09:14;;;;;;;;;;;5.90;99.90;;;;;;5085329;28;20370;-74
2024/01/23 01:11:40;;;;;;;;;;;5.90;99.90;;;;;;5084827;28;19928;-75
2024/01/23 01:14:11;;;;;;;;;;;5.90;99.90;;;;;;5067262;28;20054;-74
2024/01/23 01:16:37;;;;;;;;;;;5.80;99.90;;;;;;5065166;27;20482;-75
2024/01/23 01:19:03;;;;;;;;;;;5.80;99.90;;;;;;5085007;28;19931;-73
2024/01/23 01:21:29;;;;;;;;;;;4.50;99.90;;;;;;5067353;28;20390;-74
2024/01/23 01:23:55;;;;;;;;;;;6.00;99.90;;;;;;5068804;28;19927;-74
2024/01/23 01:26:26;;;;;;;;;;;6.50;99.90;;;;;;5068840;28;19977;-76
2024/01/23 01:28:52;;;;;;;;;;;6.00;99.90;;;;;;5080241;28;20043;-74
2024/01/23 01:31:17;;;;;;;;;;;6.00;99.80;;;;;;5085179;28;19940;-74
2024/01/23 01:33:43;;;;;;;;;;;6.20;99.90;;;;;;5083573;28;19986;-74
2024/01/23 01:36:08;;;;;;;;;;;6.30;99.90;;;;;;5085058;28;19959;-75
2024/01/23 01:38:34;;;;;;;;;;;6.40;99.90;;;;;;5051978;27;20309;-74
2024/01/23 01:40:59;;;;;;;;;;;5.80;99.90;;;;;;5083964;28;19932;-75
2024/01/23 01:43:26;;;;;;;;;;;5.70;99.90;;;;;;5099151;27;19927;-74
2024/01/23 01:46:07;;;;;;;;;;;6.10;99.90;;;;;;5100753;27;19934;-74
2024/01/23 01:48:32;;;;;;;;;;;5.70;99.90;;;;;;5083651;28;19931;-74
2024/01/23 01:50:58;;;;;;;;;;;5.60;99.90;;;;;;5082319;28;19924;-74
2024/01/23 01:53:23;;;;;;;;;;;6.20;99.90;;;;;;5083912;28;19924;-74
2024/01/23 01:55:50;;;;;;;;;;;5.70;99.90;;;;;;5083099;28;19934;-75
2024/01/23 01:58:16;;;;;;;;;;;5.90;99.90;;;;;;5066702;27;19932;-74
2024/01/23 02:00:42;;;;;;;;;;;5.90;99.90;;;;;;5065381;28;19928;-74
2024/01/23 02:03:09;;;;;;;;;;;6.40;99.80;;;;;;5067122;28;19924;-74
2024/01/23 02:05:35;;;;;;;;;;;6.20;99.60;;;;;;5085301;28;19942;-75
2024/01/23 02:08:00;;;;;;;;;;;6.10;99.70;;;;;;5082411;28;19928;-74
2024/01/23 02:10:26;;;;;;;;;;;5.90;99.50;;;;;;5066393;28;19963;-75
2024/01/23 02:12:55;;;;;;;;;;;6.50;99.50;;;;;;5082295;28;19932;-74
2024/01/23 02:15:22;;;;;;;;;;;6.10;99.40;;;;;;5051603;28;19928;-75
2024/01/23 02:17:48;;;;;;;;;;;5.80;99.30;;;;;;5083236;27;19924;-75
2024/01/23 02:20:13;;;;;;;;;;;6.40;99.50;;;;;;5066930;28;19939;-74
2024/01/23 02:22:39;;;;;;;;;;;6.00;99.20;;;;;;5064235;28;19927;-74
2024/01/23 02:25:14;;;;;;;;;;;5.90;98.90;;;;;;5084080;28;20574;-75
2024/01/23 02:27:39;;;;;;;;;;;6.00;99.00;;;;;;5064491;28;19934;-74
2024/01/23 02:30:05;;;;;;;;;;;5.80;98.80;;;;;;5099394;28;19928;-74
2024/01/23 02:32:35;;;;;;;;;;;6.10;98.90;;;;;;5099872;27;19934;-74
2024/01/23 02:35:02;;;;;;;;;;;6.50;99.10;;;;;;5083004;28;20374;-74
2024/01/23 02:37:28;;;;;;;;;;;6.50;99.00;;;;;;5083936;28;19950;-73
2024/01/23 02:39:53;;;;;;;;;;;6.00;98.90;;;;;;5063982;28;20654;-75
2024/01/23 02:42:19;;;;;;;;;;;6.60;98.80;;;;;;5083582;28;20372;-75
2024/01/23 02:44:51;;;;;;;;;;;6.00;98.70;;;;;;5051437;28;19927;-74
2024/01/23 02:47:17;;;;;;;;;;;6.40;98.80;;;;;;5104289;27;19992;-75
2024/01/23 02:49:43;;;;;;;;;;;6.50;98.80;;;;;;5065085;28;19940;-75
2024/01/23 02:52:14;;;;;;;;;;;6.00;98.60;;;;;;5101301;27;19924;-74
2024/01/23 02:54:40;;;;;;;;;;;6.70;98.70;;;;;;5065683;28;19935;-74
2024/01/23 02:57:05;;;;;;;;;;;6.30;98.70;;;;;;5048740;28;20472;-75
2024/01/23 02:59:37;;;;;;;;;;;6.20;98.60;;;;;;5086995;28;19928;-74
2024/01/23 03:02:04;;;;;;;;;;;6.40;98.70;;;;;;5065193;28;19927;-74
2024/01/23 03:04:29;;;;;;;;;;;6.10;98.40;;;;;;5101484;28;20002;-74
2024/01/23 03:06:55;;;;;;;;;;;6.10;98.20;;;;;;5085590;28;20019;-74
2024/01/23 03:09:21;;;;;;;;;;;6.60;98.20;;;;;;5071496;28;19932;-74
2024/01/23 03:11:47;;;;;;;;;;;6.80;98.10;;;;;;5085480;28;19924;-74
2024/01/23 03:14:15;;;;;;;;;;;6.90;98.30;;;;;;5102390;28;19946;-75
2024/01/23 03:16:41;;;;;;;;;;;6.70;98.40;;;;;;5052485;28;20526;-74
2024/01/23 03:19:07;;;;;;;;;;;6.20;98.30;;;;;;5084532;28;20076;-75
2024/01/23 03:21:34;;;;;;;;;;;6.20;98.60;;;;;;5071286;28;20006;-73
2024/01/23 03:24:00;;;;;;;;;;;6.60;98.70;;;;;;5067869;28;19924;-75
2024/01/23 03:26:25;;;;;;;;;;;6.70;98.70;;;;;;5067540;28;19927;-74
2024/01/23 03:28:51;;;;;;;;;;;6.80;98.80;;;;;;5084559;28;19978;-75
2024/01/23 03:31:16;;;;;;;;;;;6.80;99.00;;;;;;5086982;28;19927;-75
2024/01/23 03:33:42;;;;;;;;;;;6.30;99.10;;;;;;5055552;28;21214;-75
2024/01/23 03:36:08;;;;;;;;;;;6.80;99.30;;;;;;5088944;28;19953;-74
2024/01/23 03:38:36;;;;;;;;;;;6.80;99.40;;;;;;5086871;28;19924;-75
2024/01/23 03:41:07;;;;;;;;;;;6.30;99.20;;;;;;5105505;28;19927;-74
2024/01/23 03:43:33;;;;;;;;;;;6.30;99.40;;;;;;5053707;28;19976;-75
2024/01/23 03:45:58;;;;;;;;;;;6.00;99.40;;;;;;5098846;28;19943;-74
2024/01/23 03:48:25;;;;;;;;;;;6.80;99.70;;;;;;5067545;28;19996;-75
2024/01/23 03:50:56;;;;;;;;;;;6.40;99.30;;;;;;5083496;28;20577;-75
2024/01/23 03:53:22;;;;;;;;;;;6.40;99.40;;;;;;5065141;28;19923;-74
2024/01/23 03:55:48;;;;;;;;;;;6.90;99.70;;;;;;5066505;28;20014;-75
2024/01/23 03:58:14;;;;;;;;;;;6.20;99.70;;;;;;5105306;28;20019;-74
2024/01/23 04:00:39;;;;;;;;;;;6.50;99.90;;;;;;5069855;28;19928;-75
2024/01/23 04:03:06;;;;;;;;;;;6.80;99.90;;;;;;5101611;28;19980;-74
2024/01/23 04:05:33;;;;;;;;;;;6.30;99.90;;;;;;5068557;28;19971;-75
2024/01/23 04:08:00;;;;;;;;;;;6.40;99.90;;;;;;5069707;28;19947;-73
2024/01/23 04:10:26;;;;;;;;;;;6.50;99.90;;;;;;5068514;28;19931;-74
2024/01/23 04:12:52;;;;;;;;;;;6.50;99.90;;;;;;5053837;28;19954;-75
2024/01/23 04:15:18;;;;;;;;;;;6.70;99.90;;;;;;5101870;27;20272;-74
2024/01/23 04:17:43;;;;;;;;;;;6.80;99.90;;;;;;5085194;28;19930;-75
2024/01/23 04:20:09;;;;;;;;;;;6.80;99.90;;;;;;5084261;27;19959;-74
2024/01/23 04:22:40;;;;;;;;;;;6.20;99.90;;;;;;5086997;28;19966;-74
2024/01/23 04:25:12;;;;;;;;;;;6.70;99.90;;;;;;5085877;28;19954;-75
2024/01/23 04:27:37;;;;;;;;;;;6.40;99.90;;;;;;5086781;28;20369;-75
2024/01/23 04:30:03;;;;;;;;;;;6.50;99.90;;;;;;5083285;28;20142;-75
2024/01/23 04:32:29;;;;;;;;;;;6.80;99.90;;;;;;5067735;28;20410;-74
2024/01/23 04:34:55;;;;;;;;;;;6.20;99.90;;;;;;5086718;28;19993;-74
2024/01/23 04:37:22;;;;;;;;;;;6.70;99.90;;;;;;5068365;27;20031;-74
2024/01/23 04:39:48;;;;;;;;;;;6.60;99.90;;;;;;5084163;28;20014;-74
2024/01/23 04:42:14;;;;;;;;;;;6.70;99.90;;;;;;5068374;28;20560;-74
2024/01/23 04:44:39;;;;;;;;;;;6.50;99.90;;;;;;5069923;28;19981;-74
2024/01/23 04:47:05;;;;;;;;;;;6.20;99.90;;;;;;5053363;28;20615;-75
2024/01/23 04:49:37;;;;;;;;;;;6.10;99.90;;;;;;5070384;28;19976;-75
2024/01/23 04:52:02;;;;;;;;;;;5.90;99.90;;;;;;5070832;28;19928;-75
2024/01/23 04:54:28;;;;;;;;;;;6.60;99.90;;;;;;5061589;28;19984;-74
2024/01/23 04:56:54;;;;;;;;;;;6.20;99.90;;;;;;5086818;28;19964;-75
2024/01/23 04:59:19;;;;;;;;;;;6.20;99.90;;;;;;5087099;28;19932;-75
2024/01/23 05:01:45;;;;;;;;;;;6.10;99.90;;;;;;5086544;28;19950;-74
2024/01/23 05:04:16;;;;;;;;;;;6.10;99.90;;;;;;5086024;28;19994;-75
2024/01/23 05:06:43;;;;;;;;;;;6.20;99.90;;;;;;5071004;28;20493;-75
2024/01/23 05:09:09;;;;;;;;;;;6.30;99.90;;;;;;5085116;28;19935;-74
2024/01/23 05:11:35;;;;;;;;;;;5.90;99.90;;;;;;5064795;28;20388;-75
2024/01/23 05:14:01;;;;;;;;;;;5.80;99.90;;;;;;5069359;28;19947;-74
2024/01/23 05:16:27;;;;;;;;;;;5.70;99.90;;;;;;5102497;28;19928;-74
2024/01/23 05:18:52;;;;;;;;;;;5.70;99.90;;;;;;5066753;28;20378;-75
2024/01/23 05:21:24;;;;;;;;;;;6.20;99.90;;;;;;5085110;27;19992;-74
2024/01/23 05:23:49;;;;;;;;;;;6.30;99.90;;;;;;5050365;28;19927;-74
2024/01/23 05:26:18;;;;;;;;;;;4.90;99.90;;;;;;5085282;28;19938;-74
2024/01/23 05:28:43;;;;;;;;;;;6.20;99.90;;;;;;5070347;27;20079;-74
2024/01/23 05:31:09;;;;;;;;;;;6.30;99.90;;;;;;5053093;28;19967;-75
2024/01/23 05:33:35;;;;;;;;;;;5.60;99.90;;;;;;5085612;28;19931;-74
2024/01/23 05:36:01;;;;;;;;;;;5.90;99.90;;;;;;5086517;28;19935;-73
2024/01/23 05:38:36;;;;;;;;;;;6.30;99.90;;;;;;5071886;28;20323;-74
2024/01/23 05:41:02;;;;;;;;;;;6.00;99.90;;;;;;5082618;28;19974;-75
2024/01/23 05:43:29;;;;;;;;;;;5.90;99.90;;;;;;5083508;28;19924;-74
2024/01/23 05:46:02;;;;;;;;;;;6.10;99.90;;;;;;5084768;27;20245;-74
2024/01/23 05:48:27;;;;;;;;;;;5.70;99.90;;;;;;5085355;28;20422;-74
2024/01/23 05:50:53;;;;;;;;;;;5.70;99.90;;;;;;5103357;27;19977;-74
2024/01/23 05:53:19;;;;;;;;;;;6.10;99.90;;;;;;5084507;28;19994;-75
2024/01/23 05:55:44;;;;;;;;;;;5.60;99.90;;;;;;5086857;28;20312;-73
2024/01/23 05:58:10;;;;;;;;;;;5.70;99.90;;;;;;5069208;27;20034;-74
2024/01/23 06:00:37;;;;;;;;;;;6.30;99.90;;;;;;5084630;28;19927;-74
2024/01/23 06:03:04;;;;;;;;;;;5.90;99.90;;;;;;5069714;28;20022;-74
2024/01/23 06:05:30;;;;;;;;;;;6.00;99.90;;;;;;5100841;27;19924;-74
2024/01/23 06:07:56;;;;;;;;;;;5.80;99.90;;;;;;5089359;28;20592;-74
2024/01/23 06:10:22;;;;;;;;;;;5.80;99.90;;;;;;5087325;28;19928;-74
2024/01/23 06:12:47;;;;;;;;;;;6.30;99.90;;;;;;5070007;28;19934;-74
2024/01/23 06:15:14;;;;;;;;;;;6.10;99.90;;;;;;5069672;28;20346;-75
2024/01/23 06:17:47;;;;;;;;;;;6.30;99.90;;;;;;5068703;28;19946;-73
2024/01/23 06:20:16;;;;;;;;;;;6.10;99.90;;;;;;5017419;28;19963;-74
2024/01/23 06:22:42;;;;;;;;;;;6.00;99.90;;;;;;5103045;27;20011;-74
2024/01/23 06:25:15;;;;;;;;;;;5.90;99.90;;;;;;5083319;28;20148;-80
2024/01/23 06:27:41;;;;;;;;;;;6.20;99.90;;;;;;5082757;28;19935;-80
2024/01/23 06:30:18;;;;;;;;;;;5.90;99.90;;;;;;5086655;28;19931;-79
2024/01/23 06:32:43;;;;;;;;;;;6.10;99.90;;;;;;5082798;28;20104;-78
2024/01/23 06:35:09;;;;;;;;;;;6.10;99.90;;;;;;5085063;28;20329;-80
2024/01/23 06:37:40;;;;;;;;;;;5.80;99.90;;;;;;5068305;28;19982;-80
2024/01/23 06:40:08;;;;;;;;;;;5.50;99.90;;;;;;5083320;28;20370;-78
2024/01/23 06:42:52;;;;;;;;;;;6.40;99.90;;;;;;5081449;28;20052;-76
2024/01/23 06:45:39;;;;;;;;;;;5.50;99.90;;;;;;5101197;28;19973;-77
2024/01/23 06:48:05;;;;;;;;;;;6.10;99.90;;;;;;5063008;28;19928;-78
2024/01/23 06:50:30;;;;;;;;;;;5.90;99.90;;;;;;5078543;28;19927;-78
2024/01/23 06:52:56;;;;;;;;;;;6.10;99.90;;;;;;5078636;27;19964;-78
2024/01/23 06:55:22;;;;;;;;;;;6.00;99.90;;;;;;5083968;28;20393;-79
2024/01/23 06:57:47;;;;;;;;;;;5.40;99.90;;;;;;5082672;28;20073;-80
2024/01/23 07:00:13;;;;;;;;;;;5.80;99.90;;;;;;5101177;28;19931;-78
2024/01/23 07:02:45;;;;;;;;;;;5.70;99.90;;;;;;5096466;28;20426;-80
2024/01/23 07:05:10;;;;;;;;;;;5.50;99.90;;;;;;5065685;28;19935;-76
2024/01/23 07:07:37;;;;;;;;;;;6.00;99.90;;;;;;5083825;28;19944;-77
2024/01/23 07:10:04;;;;;;;;;;;5.60;99.90;;;;;;5082258;28;19983;-76
2024/01/23 07:12:30;;;;;;;;;;;5.50;99.90;;;;;;5074869;28;19923;-77
2024/01/23 07:14:57;;;;;;;;;;;5.40;99.90;;;;;;5083144;28;20060;-76
2024/01/23 07:17:22;;;;;;;;;;;5.30;99.90;;;;;;5081069;28;19927;-75
2024/01/23 07:19:48;;;;;;;;;;;5.40;99.90;;;;;;5047755;28;19932;-76
2024/01/23 07:22:14;;;;;;;;;;;5.50;99.90;;;;;;5068642;28;19931;-76
2024/01/23 07:24:39;;;;;;;;;;;5.60;99.90;;;;;;5082014;28;20208;-76
2024/01/23 07:27:05;;;;;;;;;;;5.90;99.90;;;;;;5082267;28;20383;-76
2024/01/23 07:29:38;;;;;;;;;;;5.40;99.90;;;;;;5050796;28;19928;-78
2024/01/23 07:32:15;;;;;;;;;;;5.70;99.90;;;;;;5057614;28;20306;-78
2024/01/23 07:35:03;;;;;;;;;;;5.60;99.90;;;;;;5029596;28;19925;-77
2024/01/23 07:38:12;;;;;;;;;;;5.80;99.90;;;;;;5066827;28;19930;-79
2024/01/23 07:40:57;;;;;;;;;;;5.40;99.90;;;;;;5063066;28;20438;-76
2024/01/23 07:44:02;;;;;;;;;;;5.80;99.90;;;;;;5064117;28;20315;-78
2024/01/23 07:46:51;;;;;;;;;;;5.70;99.90;;;;;;5067223;28;19939;-79
2024/01/23 07:49:27;;;;;;;;;;;5.40;99.90;;;;;;5072255;28;19928;-79
2024/01/23 07:52:01;;;;;;;;;;;5.80;99.90;;;;;;5062812;28;19966;-79
2024/01/23 07:54:50;;;;;;;;;;;5.50;99.90;;;;;;5063953;28;19970;-76
2024/01/23 07:58:02;;;;;;;;;;;5.30;99.90;;;;;;5030477;28;20032;-77
2024/01/23 08:00:35;;;;;;;;;;;5.30;99.90;;;;;;5062786;28;20378;-76
2024/01/23 08:03:11;;;;;;;;;;;5.80;99.90;;;;;;5065843;28;19935;-76
2024/01/23 08:05:37;;;;;;;;;;;5.90;99.90;;;;;;5048512;28;19935;-76
2024/01/23 08:08:03;;;;;;;;;;;5.70;99.90;;;;;;5065126;28;19928;-76
2024/01/23 08:10:31;;;;;;;;;;;5.90;99.90;;;;;;5043513;28;19924;-76
2024/01/23 08:12:57;;;;;;;;;;;5.60;99.90;;;;;;5046721;28;19970;-76
2024/01/23 08:15:23;;;;;;;;;;;5.80;99.90;;;;;;5032505;28;20015;-76
2024/01/23 08:17:51;;;;;;;;;;;5.80;99.90;;;;;;5049017;28;20003;-76
2024/01/23 08:20:23;;;;;;;;;;;5.70;99.90;;;;;;5066123;28;19935;-76
2024/01/23 08:22:49;;;;;;;;;;;5.50;99.90;;;;;;5053469;28;19929;-75
2024/01/23 08:25:15;;;;;;;;;;;5.50;99.90;;;;;;5056153;28;20007;-77
2024/01/23 08:27:44;;;;;;;;;;;5.20;99.90;;;;;;5047721;28;19963;-76
2024/01/23 08:30:10;;;;;;;;;;;5.60;99.90;;;;;;5050251;28;19932;-78
2024/01/23 08:32:37;;;;;;;;;;;5.40;99.90;;;;;;5046859;28;19928;-75
2024/01/23 08:35:03;;;;;;;;;;;5.70;99.90;;;;;;5077022;28;19923;-74
2024/01/23 08:37:28;;;;;;;;;;;5.90;99.90;;;;;;5074781;28;19954;-75
2024/01/23 08:40:03;;;;;;;;;;;5.30;99.90;;;;;;5104959;28;19932;-75
2024/01/23 08:42:36;;;;;;;;;;;5.90;99.90;;;;;;5103022;28;20447;-74
2024/01/23 08:45:05;;;;;;;;;;;5.80;99.90;;;;;;5069989;28;19935;-74
2024/01/23 08:47:45;;;;;;;;;;;5.30;99.90;;;;;;5084084;27;19934;-76
2024/01/23 08:50:15;;;;;;;;;;;5.30;99.90;;;;;;5101479;27;19931;-77
2024/01/23 08:56:19;;;;;;;;;;;5.60;99.90;;;;;;5108066;27;19923;-77
2024/01/23 08:59:14;;;;;;;;;;;6.20;99.90;;;;;;5106580;28;19935;-77
2024/01/23 09:01:43;;;;;;;;;;;6.60;99.90;;;;;;5084560;28;19931;-71
2024/01/23 09:04:09;;;;;;;;;;;7.20;99.90;;;;;;5100253;27;20240;-74
2024/01/23 09:06:34;;;;;;;;;;;7.10;99.90;;;;;;5065902;28;19946;-74
2024/01/23 09:09:00;;;;;;;;;;;7.50;99.90;;;;;;5082738;28;19928;-77
2024/01/23 09:11:27;;;;;;;;;;;7.60;99.90;;;;;;5066732;28;19936;-74
2024/01/23 09:14:01;;;;;;;;;;;6.50;99.90;;;;;;5100453;28;20325;-74
2024/01/23 09:16:37;;;;;;;;;;;6.90;99.90;;;;;;5083750;27;19997;-78
2024/01/23 09:19:04;;;;;;;;;;;6.70;99.90;;;;;;5085275;28;19928;-78
2024/01/23 09:21:37;;;;;;;;;;;6.50;99.90;;;;;;5069329;27;20048;-79
2024/01/23 09:24:03;;;;;;;;;;;6.30;99.90;;;;;;5086563;28;19932;-82
2024/01/23 09:26:29;;;;;;;;;;;6.40;99.90;;;;;;5068500;28;19931;-79
2024/01/23 09:28:55;;;;;;;;;;;4.50;99.90;;;;;;5082267;27;19931;-75
2024/01/23 09:31:22;;;;;;;;;;;6.20;99.90;;;;;;5084861;28;19936;-77
2024/01/23 09:33:50;;;;;;;;;;;6.30;99.90;;;;;;5068016;28;20365;-77
2024/01/23 09:36:22;;;;;;;;;;;6.50;99.90;;;;;;5082915;28;19928;-76
2024/01/23 09:38:48;;;;;;;;;;;6.40;99.90;;;;;;5084963;28;19927;-77
2024/01/23 09:41:22;;;;;;;;;;;6.60;99.90;;;;;;5067106;28;19924;-78
2024/01/23 09:43:57;;;;;;;;;;;7.00;99.90;;;;;;5100351;28;20424;-77
2024/01/23 09:46:43;;;;;;;;;;;7.20;99.90;;;;;;5086285;27;19946;-79
2024/01/23 09:49:16;;;;;;;;;;;7.20;99.90;;;;;;5084017;28;19931;-77
2024/01/23 09:52:00;;;;;;;;;;;6.90;99.90;;;;;;5085324;27;19988;-78
2024/01/23 09:54:29;;;;;;;;;;;6.80;99.90;;;;;;5079532;28;20421;-73
2024/01/23 09:56:55;;;;;;;;;;;6.90;99.90;;;;;;5065528;28;19928;-74
2024/01/23 09:59:22;;;;;;;;;;;7.00;99.90;;;;;;5084190;27;19931;-74
2024/01/23 10:01:49;;;;;;;;;;;6.70;99.90;;;;;;5080002;28;19960;-74
2024/01/23 10:04:15;;;;;;;;;;;7.10;99.90;;;;;;5083043;28;19935;-75
2024/01/23 10:06:41;;;;;;;;;;;6.90;99.90;;;;;;5066489;28;19931;-74
2024/01/23 10:09:23;;;;;;;;;;;7.20;99.90;;;;;;5094321;28;19919;-74
2024/01/23 10:11:49;;;;;;;;;;;7.40;99.90;;;;;;5063007;28;19928;-74
2024/01/23 10:14:21;;;;;;;;;;;7.50;99.90;;;;;;5083055;28;19989;-74
2024/01/23 10:16:47;;;;;;;;;;;7.70;99.90;;;;;;5068158;28;19943;-74
2024/01/23 10:19:12;;;;;;;;;;;8.20;99.90;;;;;;5083742;28;20167;-74
2024/01/23 10:21:41;;;;;;;;;;;8.50;98.80;;;;;;5084742;28;19928;-74
2024/01/23 10:24:07;;;;;;;;;;;8.40;98.40;;;;;;5082192;28;19927;-74
2024/01/23 10:26:39;;;;;;;;;;;8.10;97.80;;;;;;5084041;28;19927;-74
2024/01/23 10:29:13;;;;;;;;;;;7.50;97.80;;;;;;5099514;27;19995;-74
2024/01/23 10:31:44;;;;;;;;;;;7.60;98.80;;;;;;5102009;28;19927;-74
2024/01/23 10:34:11;;;;;;;;;;;7.80;99.40;;;;;;5067065;28;19927;-76
2024/01/23 10:36:38;;;;;;;;;;;7.90;99.90;;;;;;5066826;28;19927;-76
2024/01/23 10:39:12;;;;;;;;;;;8.50;99.50;;;;;;5084596;28;20002;-76
2024/01/23 10:41:39;;;;;;;;;;;8.50;97.90;;;;;;5082736;28;19932;-76
2024/01/23 10:44:09;;;;;;;;;;;8.50;96.90;;;;;;5082545;28;19938;-75
2024/01/23 10:46:40;;;;;;;;;;;8.70;97.10;;;;;;5083330;28;19928;-76
2024/01/23 10:49:09;;;;;;;;;;;9.30;96.80;;;;;;5084831;28;19979;-75
2024/01/23 10:51:36;;;;;;;;;;;8.50;94.70;;;;;;5083540;28;19927;-76
2024/01/23 10:54:08;;;;;;;;;;;9.30;93.90;;;;;;5068562;28;20435;-75
2024/01/23 10:56:38;;;;;;;;;;;9.50;93.40;;;;;;5084344;28;19928;-75
2024/01/23 10:59:08;;;;;;;;;;;9.40;94.60;;;;;;5105367;28;19943;-74
2024/01/23 11:01:38;;;;;;;;;;;9.30;94.30;;;;;;5085221;28;19985;-76
2024/01/23 11:04:05;;;;;;;;;;;10.00;93.10;;;;;;5082202;28;19938;-75
2024/01/23 11:06:35;;;;;;;;;;;10.10;90.50;;;;;;5065735;28;20279;-75
2024/01/23 11:09:12;;;;;;;;;;;9.90;90.20;;;;;;5081507;28;20038;-74
2024/01/23 11:11:48;;;;;;;;;;;9.10;90.60;;;;;;5104475;28;19934;-74
2024/01/23 11:14:36;;;;;;;;;;;8.80;92.50;;;;;;5077946;28;19933;-74
2024/01/23 11:17:13;;;;;;;;;;;8.50;94.30;;;;;;5061996;28;19928;-75
2024/01/23 11:19:40;;;;;;;;;;;7.90;96.00;;;;;;5062419;28;19941;-74
2024/01/23 11:22:11;;;;;;;;;;;6.10;97.10;;;;;;5062321;28;19928;-76
2024/01/23 11:24:48;;;;;;;;;;;7.80;98.30;;;;;;5057958;28;19983;-74
2024/01/23 11:27:24;;;;;;;;;;;7.00;98.50;;;;;;5056451;28;20397;-79
2024/01/23 11:29:51;;;;;;;;;;;7.00;99.00;;;;;;5063576;28;19932;-73
2024/01/23 11:32:17;;;;;;;;;;;7.10;99.70;;;;;;5055270;28;19928;-75
2024/01/23 11:34:42;;;;;;;;;;;7.50;99.90;;;;;;5057451;28;19939;-79
2024/01/23 11:37:29;;;;;;;;;;;7.20;99.90;;;;;;5079119;28;19943;-81
2024/01/23 11:39:58;;;;;;;;;;;7.20;99.90;;;;;;5064114;28;19924;-78
2024/01/23 11:42:33;;;;;;;;;;;7.70;99.90;;;;;;5057850;28;20117;-78
2024/01/23 11:45:18;;;;;;;;;;;7.60;99.90;;;;;;5067589;28;19926;-78
2024/01/23 11:47:53;;;;;;;;;;;7.00;99.90;;;;;;5103622;28;19950;-80
2024/01/23 11:50:19;;;;;;;;;;;7.00;99.90;;;;;;5083532;28;19923;-81
2024/01/23 11:52:48;;;;;;;;;;;7.00;99.90;;;;;;5105863;28;19950;-78
2024/01/23 11:55:14;;;;;;;;;;;7.60;99.90;;;;;;5085169;28;19979;-81
2024/01/23 11:57:40;;;;;;;;;;;7.60;99.90;;;;;;5085829;28;19963;-77
2024/01/23 12:00:06;;;;;;;;;;;8.50;99.90;;;;;;5083322;28;20350;-78
2024/01/23 12:02:32;;;;;;;;;;;7.20;99.90;;;;;;5086336;28;19974;-82
2024/01/23 12:04:58;;;;;;;;;;;7.70;99.90;;;;;;5070540;28;19963;-80
2024/01/23 12:07:23;;;;;;;;;;;7.50;99.90;;;;;;5084284;28;20018;-79
2024/01/23 12:09:49;;;;;;;;;;;7.60;99.90;;;;;;5103421;28;19953;-81
2024/01/23 12:12:15;;;;;;;;;;;7.60;99.90;;;;;;5089581;28;20404;-81
2024/01/23 12:14:40;;;;;;;;;;;7.60;99.90;;;;;;5070986;28;20295;-82
2024/01/23 12:17:09;;;;;;;;;;;7.20;99.90;;;;;;5110271;28;19927;-80
2024/01/23 12:19:44;;;;;;;;;;;8.10;99.90;;;;;;5071750;28;19984;-79
2024/01/23 12:22:10;;;;;;;;;;;7.10;99.90;;;;;;5104660;28;19943;-81
2024/01/23 12:24:37;;;;;;;;;;;7.70;99.90;;;;;;5109083;27;19931;-78
2024/01/23 12:27:04;;;;;;;;;;;7.70;99.90;;;;;;5074835;28;19935;-77
2024/01/23 12:29:36;;;;;;;;;;;7.90;99.90;;;;;;5103742;27;19924;-79
2024/01/23 12:32:02;;;;;;;;;;;7.50;99.90;;;;;;5073600;28;19953;-80
2024/01/23 12:34:31;;;;;;;;;;;8.10;99.90;;;;;;5090013;28;19931;-82
2024/01/23 12:37:00;;;;;;;;;;;7.70;99.90;;;;;;5085428;28;19924;-74
2024/01/23 12:39:28;;;;;;;;;;;8.10;99.90;;;;;;5070073;28;19928;-79
2024/01/23 12:41:57;;;;;;;;;;;7.60;99.90;;;;;;5070413;28;19928;-79
2024/01/23 12:44:25;;;;;;;;;;;7.50;99.90;;;;;;5100275;27;19928;-81
2024/01/23 12:46:50;;;;;;;;;;;8.10;99.90;;;;;;5070034;28;19927;-88
2024/01/23 12:49:18;;;;;;;;;;;7.70;99.90;;;;;;5061563;28;19939;-84
2024/01/23 12:51:49;;;;;;;;;;;8.10;99.90;;;;;;5073858;28;20237;-83
2024/01/23 12:54:15;;;;;;;;;;;7.60;99.90;;;;;;5088283;28;19932;-83
2024/01/23 12:56:40;;;;;;;;;;;8.30;99.90;;;;;;5087776;28;19931;-80
2024/01/23 12:59:06;;;;;;;;;;;7.70;99.90;;;;;;5084950;28;19931;-79
2024/01/23 13:01:32;;;;;;;;;;;8.10;99.90;;;;;;5085840;28;19934;-80
2024/01/23 13:03:57;;;;;;;;;;;8.10;99.90;;;;;;5069180;27;20038;-74
2024/01/23 13:06:24;;;;;;;;;;;8.20;99.90;;;;;;5086441;28;19928;-88
2024/01/23 13:08:49;;;;;;;;;;;8.00;99.90;;;;;;5086290;28;19945;-80
2024/01/23 13:11:16;;;;;;;;;;;8.10;99.90;;;;;;5089338;28;19931;-80
2024/01/23 13:13:47;;;;;;;;;;;7.40;99.90;;;;;;5091127;28;19927;-77
2024/01/23 13:16:13;;;;;;;;;;;7.40;99.90;;;;;;5086213;28;20287;-74
2024/01/23 13:18:41;;;;;;;;;;;7.90;99.90;;;;;;5049127;27;19932;-81
2024/01/23 13:21:06;;;;;;;;;;;7.90;99.90;;;;;;5053368;28;19932;-87
2024/01/23 13:23:32;;;;;;;;;;;7.50;99.90;;;;;;5088396;28;19928;-85
2024/01/23 13:25:58;;;;;;;;;;;8.00;99.90;;;;;;5091488;28;19927;-81
2024/01/23 13:28:23;;;;;;;;;;;7.30;99.90;;;;;;5068129;28;19934;-82
2024/01/23 13:30:49;;;;;;;;;;;7.20;99.90;;;;;;5089213;28;21413;-82
2024/01/23 13:33:16;;;;;;;;;;;7.70;99.90;;;;;;5089212;27;20065;-82
2024/01/23 13:35:41;;;;;;;;;;;7.90;99.90;;;;;;5089118;28;19924;-89
2024/01/23 13:38:07;;;;;;;;;;;7.80;99.90;;;;;;5053695;28;19928;-86
2024/01/23 13:40:32;;;;;;;;;;;7.10;99.90;;;;;;5068869;28;20541;-85
2024/01/23 13:42:58;;;;;;;;;;;7.60;99.90;;;;;;5089983;28;19928;-89
2024/01/23 13:45:26;;;;;;;;;;;7.20;99.90;;;;;;5069702;28;20001;-84
2024/01/23 13:47:52;;;;;;;;;;;7.00;99.90;;;;;;5070960;28;19923;-82
2024/01/23 13:50:17;;;;;;;;;;;7.80;99.90;;;;;;5085776;28;19984;-81
2024/01/23 13:52:43;;;;;;;;;;;7.40;99.90;;;;;;5067978;28;20021;-89
2024/01/23 13:55:10;;;;;;;;;;;7.40;99.90;;;;;;5056710;28;19970;-80
2024/01/23 13:57:38;;;;;;;;;;;7.00;99.90;;;;;;5068055;27;19924;-81
2024/01/23 14:00:11;;;;;;;;;;;7.60;99.90;;;;;;5067707;28;19928;-90
2024/01/23 14:02:41;;;;;;;;;;;7.20;99.90;;;;;;5083180;28;19974;-82
2024/01/23 14:05:06;;;;;;;;;;;7.00;99.90;;;;;;5050373;28;19924;-77
2024/01/23 14:07:35;;;;;;;;;;;7.10;99.90;;;;;;5085150;28;19935;-76
2024/01/23 14:10:00;;;;;;;;;;;7.20;99.90;;;;;;5066733;28;20324;-81
2024/01/23 14:12:26;;;;;;;;;;;7.50;99.90;;;;;;5067884;28;19988;-84
2024/01/23 14:14:52;;;;;;;;;;;9.00;99.90;;;;;;5084701;28;19967;-80
2024/01/23 14:17:17;;;;;;;;;;;7.70;99.90;;;;;;5086356;28;19980;-81
2024/01/23 14:19:43;;;;;;;;;;;7.60;99.90;;;;;;5058517;27;19930;-79
2024/01/23 14:22:10;;;;;;;;;;;7.10;99.90;;;;;;5083295;28;20039;-80
2024/01/23 14:24:36;;;;;;;;;;;7.10;99.90;;;;;;5101069;27;19974;-79
2024/01/23 14:27:03;;;;;;;;;;;7.70;99.90;;;;;;5067635;28;19924;-79
2024/01/23 14:29:29;;;;;;;;;;;7.50;99.90;;;;;;5078122;28;20294;-80
2024/01/23 14:32:00;;;;;;;;;;;7.50;99.90;;;;;;5084723;28;19982;-79
2024/01/23 14:34:28;;;;;;;;;;;7.00;99.90;;;;;;5085407;28;19931;-79
2024/01/23 14:36:54;;;;;;;;;;;7.10;99.90;;;;;;5069592;28;19983;-79
2024/01/23 14:39:19;;;;;;;;;;;7.50;99.90;;;;;;5085280;28;20022;-78
2024/01/23 14:41:45;;;;;;;;;;;7.10;99.90;;;;;;5101168;28;20023;-78